sensor_id;sensor_type;location;lat;lon;timestamp;P1;durP1;ratioP1;P2;durP2;ratioP2
19257;SDS011;9763;48.780;9.212;2022-09-03T00:02:13;1.20;;;0.80;;
19257;SDS011;9763;48.780;9.212;2022-09-03T00:05:45;1.50;;;0.90;;
19257;SDS011;9763;48.780;9.212;2022-09-03T00:09:18;1.20;;;0.90;;
19257;SDS011;9763;48.780;9.212;2022-09-03T00:12:50;1.20;;;0.70;;
19257;SDS011;9763;48.780;9.212;2022-09-03T00:16:19;1.30;;;0.80;;
19257;SDS011;9763;48.780;9.212;2022-09-03T00:19:53;1.33;;;0.83;;
19257;SDS011;9763;48.780;9.212;2022-09-03T00:23:22;1.33;;;0.80;;
19257;SDS011;9763;48.780;9.212;2022-09-03T00:26:51;1.30;;;0.90;;
19257;SDS011;9763;48.780;9.212;2022-09-03T00:30:22;1.30;;;0.87;;
19257;SDS011;9763;48.780;9.212;2022-09-03T00:33:48;2.13;;;1.00;;
19257;SDS011;9763;48.780;9.212;2022-09-03T00:37:18;1.30;;;0.80;;
19257;SDS011;9763;48.780;9.212;2022-09-03T00:40:45;1.57;;;0.90;;
19257;SDS011;9763;48.780;9.212;2022-09-03T00:44:41;1.40;;;0.93;;
19257;SDS011;9763;48.780;9.212;2022-09-03T00:48:20;1.50;;;1.00;;
19257;SDS011;9763;48.780;9.212;2022-09-03T00:51:50;1.97;;;1.00;;
19257;SDS011;9763;48.780;9.212;2022-09-03T00:55:36;1.43;;;1.00;;
19257;SDS011;9763;48.780;9.212;2022-09-03T00:59:14;1.30;;;1.00;;
19257;SDS011;9763;48.780;9.212;2022-09-03T01:02:59;1.40;;;0.90;;
19257;SDS011;9763;48.780;9.212;2022-09-03T01:06:30;1.30;;;0.90;;
19257;SDS011;9763;48.780;9.212;2022-09-03T01:10:08;1.83;;;0.90;;
19257;SDS011;9763;48.780;9.212;2022-09-03T01:13:52;1.63;;;1.00;;
19257;SDS011;9763;48.780;9.212;2022-09-03T01:17:27;1.37;;;1.03;;
19257;SDS011;9763;48.780;9.212;2022-09-03T01:21:08;1.30;;;0.87;;
19257;SDS011;9763;48.780;9.212;2022-09-03T01:25:00;1.30;;;0.80;;
19257;SDS011;9763;48.780;9.212;2022-09-03T01:28:51;1.30;;;0.80;;
19257;SDS011;9763;48.780;9.212;2022-09-03T01:32:34;1.30;;;0.93;;
19257;SDS011;9763;48.780;9.212;2022-09-03T01:36:10;1.30;;;0.93;;
19257;SDS011;9763;48.780;9.212;2022-09-03T01:39:48;1.30;;;0.90;;
19257;SDS011;9763;48.780;9.212;2022-09-03T01:43:29;1.37;;;1.00;;
19257;SDS011;9763;48.780;9.212;2022-09-03T01:47:13;1.27;;;0.90;;
19257;SDS011;9763;48.780;9.212;2022-09-03T01:50:53;1.40;;;0.90;;
19257;SDS011;9763;48.780;9.212;2022-09-03T01:54:35;1.37;;;0.80;;
19257;SDS011;9763;48.780;9.212;2022-09-03T01:58:16;1.70;;;0.80;;
19257;SDS011;9763;48.780;9.212;2022-09-03T02:01:52;1.20;;;0.80;;
19257;SDS011;9763;48.780;9.212;2022-09-03T02:05:25;1.20;;;0.90;;
19257;SDS011;9763;48.780;9.212;2022-09-03T02:08:50;1.20;;;0.80;;
19257;SDS011;9763;48.780;9.212;2022-09-03T02:12:14;1.30;;;0.90;;
19257;SDS011;9763;48.780;9.212;2022-09-03T02:15:42;1.40;;;0.87;;
19257;SDS011;9763;48.780;9.212;2022-09-03T02:19:12;1.30;;;0.80;;
19257;SDS011;9763;48.780;9.212;2022-09-03T02:22:39;1.30;;;0.90;;
19257;SDS011;9763;48.780;9.212;2022-09-03T02:26:05;1.50;;;1.00;;
19257;SDS011;9763;48.780;9.212;2022-09-03T02:29:32;1.80;;;1.00;;
19257;SDS011;9763;48.780;9.212;2022-09-03T02:32:55;1.43;;;1.07;;
19257;SDS011;9763;48.780;9.212;2022-09-03T02:36:20;2.07;;;0.90;;
19257;SDS011;9763;48.780;9.212;2022-09-03T02:39:51;1.50;;;1.00;;
19257;SDS011;9763;48.780;9.212;2022-09-03T02:43:16;1.30;;;0.90;;
19257;SDS011;9763;48.780;9.212;2022-09-03T02:46:50;3.20;;;0.90;;
19257;SDS011;9763;48.780;9.212;2022-09-03T02:50:19;1.30;;;0.93;;
19257;SDS011;9763;48.780;9.212;2022-09-03T02:53:43;1.27;;;0.80;;
19257;SDS011;9763;48.780;9.212;2022-09-03T02:57:08;1.30;;;0.90;;
19257;SDS011;9763;48.780;9.212;2022-09-03T03:00:34;1.30;;;0.90;;
19257;SDS011;9763;48.780;9.212;2022-09-03T03:03:58;1.40;;;0.80;;
19257;SDS011;9763;48.780;9.212;2022-09-03T03:07:22;1.47;;;0.97;;
19257;SDS011;9763;48.780;9.212;2022-09-03T03:10:46;1.47;;;1.00;;
19257;SDS011;9763;48.780;9.212;2022-09-03T03:14:14;1.50;;;1.00;;
19257;SDS011;9763;48.780;9.212;2022-09-03T03:17:38;1.70;;;0.80;;
19257;SDS011;9763;48.780;9.212;2022-09-03T03:21:05;1.30;;;0.83;;
19257;SDS011;9763;48.780;9.212;2022-09-03T03:24:30;1.40;;;0.90;;
19257;SDS011;9763;48.780;9.212;2022-09-03T03:27:54;1.40;;;0.97;;
19257;SDS011;9763;48.780;9.212;2022-09-03T03:31:20;1.30;;;1.03;;
19257;SDS011;9763;48.780;9.212;2022-09-03T03:34:44;1.90;;;1.00;;
19257;SDS011;9763;48.780;9.212;2022-09-03T03:38:08;1.20;;;0.80;;
19257;SDS011;9763;48.780;9.212;2022-09-03T03:41:32;1.50;;;1.00;;
19257;SDS011;9763;48.780;9.212;2022-09-03T03:44:58;1.30;;;0.80;;
19257;SDS011;9763;48.780;9.212;2022-09-03T03:48:24;1.30;;;0.90;;
19257;SDS011;9763;48.780;9.212;2022-09-03T03:51:48;1.27;;;0.80;;
19257;SDS011;9763;48.780;9.212;2022-09-03T03:55:13;1.73;;;1.10;;
19257;SDS011;9763;48.780;9.212;2022-09-03T03:58:37;1.30;;;1.00;;
19257;SDS011;9763;48.780;9.212;2022-09-03T04:02:03;1.30;;;0.90;;
19257;SDS011;9763;48.780;9.212;2022-09-03T04:05:27;1.83;;;1.00;;
19257;SDS011;9763;48.780;9.212;2022-09-03T04:08:54;1.30;;;0.80;;
19257;SDS011;9763;48.780;9.212;2022-09-03T04:12:18;1.20;;;0.90;;
19257;SDS011;9763;48.780;9.212;2022-09-03T04:15:42;1.30;;;1.00;;
19257;SDS011;9763;48.780;9.212;2022-09-03T04:19:05;1.37;;;0.83;;
19257;SDS011;9763;48.780;9.212;2022-09-03T04:22:30;1.30;;;0.90;;
19257;SDS011;9763;48.780;9.212;2022-09-03T04:25:54;1.93;;;1.10;;
19257;SDS011;9763;48.780;9.212;2022-09-03T04:29:17;1.37;;;1.00;;
19257;SDS011;9763;48.780;9.212;2022-09-03T04:32:41;1.53;;;1.30;;
19257;SDS011;9763;48.780;9.212;2022-09-03T04:36:18;2.63;;;1.00;;
19257;SDS011;9763;48.780;9.212;2022-09-03T04:39:45;1.30;;;0.80;;
19257;SDS011;9763;48.780;9.212;2022-09-03T04:43:09;1.30;;;0.80;;
19257;SDS011;9763;48.780;9.212;2022-09-03T04:46:32;1.43;;;1.03;;
19257;SDS011;9763;48.780;9.212;2022-09-03T04:49:56;1.30;;;0.90;;
19257;SDS011;9763;48.780;9.212;2022-09-03T04:53:21;2.10;;;1.20;;
19257;SDS011;9763;48.780;9.212;2022-09-03T04:56:46;1.37;;;0.90;;
19257;SDS011;9763;48.780;9.212;2022-09-03T05:00:10;1.40;;;1.00;;
19257;SDS011;9763;48.780;9.212;2022-09-03T05:03:34;1.60;;;1.00;;
19257;SDS011;9763;48.780;9.212;2022-09-03T05:06:59;6.27;;;0.93;;
19257;SDS011;9763;48.780;9.212;2022-09-03T05:10:22;1.40;;;0.90;;
19257;SDS011;9763;48.780;9.212;2022-09-03T05:13:48;1.90;;;1.10;;
19257;SDS011;9763;48.780;9.212;2022-09-03T05:17:14;1.40;;;0.90;;
19257;SDS011;9763;48.780;9.212;2022-09-03T05:20:37;1.40;;;1.00;;
19257;SDS011;9763;48.780;9.212;2022-09-03T05:24:01;1.33;;;0.90;;
19257;SDS011;9763;48.780;9.212;2022-09-03T05:27:26;1.50;;;1.07;;
19257;SDS011;9763;48.780;9.212;2022-09-03T05:30:58;1.83;;;1.00;;
19257;SDS011;9763;48.780;9.212;2022-09-03T05:34:22;1.80;;;0.93;;
19257;SDS011;9763;48.780;9.212;2022-09-03T05:37:46;1.30;;;0.97;;
19257;SDS011;9763;48.780;9.212;2022-09-03T05:41:10;1.20;;;0.83;;
19257;SDS011;9763;48.780;9.212;2022-09-03T05:44:36;1.40;;;0.90;;
19257;SDS011;9763;48.780;9.212;2022-09-03T05:48:01;2.00;;;1.10;;
19257;SDS011;9763;48.780;9.212;2022-09-03T05:51:25;1.53;;;1.13;;
19257;SDS011;9763;48.780;9.212;2022-09-03T05:54:49;1.40;;;0.93;;
19257;SDS011;9763;48.780;9.212;2022-09-03T05:58:13;1.53;;;1.23;;
19257;SDS011;9763;48.780;9.212;2022-09-03T06:01:37;1.20;;;0.90;;
19257;SDS011;9763;48.780;9.212;2022-09-03T06:05:14;1.30;;;1.00;;
19257;SDS011;9763;48.780;9.212;2022-09-03T06:08:39;1.50;;;1.10;;
19257;SDS011;9763;48.780;9.212;2022-09-03T06:12:05;1.30;;;0.90;;
19257;SDS011;9763;48.780;9.212;2022-09-03T06:15:29;1.90;;;1.03;;
19257;SDS011;9763;48.780;9.212;2022-09-03T06:18:53;1.30;;;0.87;;
19257;SDS011;9763;48.780;9.212;2022-09-03T06:22:18;1.50;;;0.90;;
19257;SDS011;9763;48.780;9.212;2022-09-03T06:25:41;1.20;;;0.80;;
19257;SDS011;9763;48.780;9.212;2022-09-03T06:29:05;1.20;;;0.80;;
19257;SDS011;9763;48.780;9.212;2022-09-03T06:32:29;1.50;;;1.07;;
19257;SDS011;9763;48.780;9.212;2022-09-03T06:35:53;1.50;;;1.10;;
19257;SDS011;9763;48.780;9.212;2022-09-03T06:39:21;1.40;;;1.03;;
19257;SDS011;9763;48.780;9.212;2022-09-03T06:42:54;1.40;;;1.20;;
19257;SDS011;9763;48.780;9.212;2022-09-03T06:46:22;2.00;;;1.10;;
19257;SDS011;9763;48.780;9.212;2022-09-03T06:49:46;1.60;;;0.97;;
19257;SDS011;9763;48.780;9.212;2022-09-03T06:53:10;1.40;;;1.10;;
19257;SDS011;9763;48.780;9.212;2022-09-03T06:56:35;1.50;;;1.20;;
19257;SDS011;9763;48.780;9.212;2022-09-03T07:00:02;1.30;;;1.10;;
19257;SDS011;9763;48.780;9.212;2022-09-03T07:03:26;1.63;;;1.00;;
19257;SDS011;9763;48.780;9.212;2022-09-03T07:06:50;1.33;;;0.93;;
19257;SDS011;9763;48.780;9.212;2022-09-03T07:10:14;1.67;;;1.10;;
19257;SDS011;9763;48.780;9.212;2022-09-03T07:13:43;2.80;;;1.10;;
19257;SDS011;9763;48.780;9.212;2022-09-03T07:17:08;2.10;;;1.10;;
19257;SDS011;9763;48.780;9.212;2022-09-03T07:20:32;1.30;;;0.90;;
19257;SDS011;9763;48.780;9.212;2022-09-03T07:23:56;1.40;;;1.00;;
19257;SDS011;9763;48.780;9.212;2022-09-03T07:27:20;2.57;;;1.20;;
19257;SDS011;9763;48.780;9.212;2022-09-03T07:30:46;1.40;;;1.03;;
19257;SDS011;9763;48.780;9.212;2022-09-03T07:34:10;1.60;;;1.20;;
19257;SDS011;9763;48.780;9.212;2022-09-03T07:37:39;1.97;;;1.30;;
19257;SDS011;9763;48.780;9.212;2022-09-03T07:41:05;1.33;;;1.10;;
19257;SDS011;9763;48.780;9.212;2022-09-03T07:44:30;1.50;;;1.20;;
19257;SDS011;9763;48.780;9.212;2022-09-03T07:47:55;1.70;;;1.30;;
19257;SDS011;9763;48.780;9.212;2022-09-03T07:51:20;1.60;;;1.30;;
19257;SDS011;9763;48.780;9.212;2022-09-03T07:54:47;2.50;;;1.20;;
19257;SDS011;9763;48.780;9.212;2022-09-03T07:58:11;1.90;;;1.23;;
19257;SDS011;9763;48.780;9.212;2022-09-03T08:01:36;1.57;;;1.20;;
19257;SDS011;9763;48.780;9.212;2022-09-03T08:05:07;1.70;;;1.30;;
19257;SDS011;9763;48.780;9.212;2022-09-03T08:08:36;1.70;;;1.30;;
19257;SDS011;9763;48.780;9.212;2022-09-03T08:12:12;1.60;;;1.20;;
19257;SDS011;9763;48.780;9.212;2022-09-03T08:16:34;2.60;;;1.20;;
19257;SDS011;9763;48.780;9.212;2022-09-03T08:20:20;1.47;;;1.20;;
19257;SDS011;9763;48.780;9.212;2022-09-03T08:23:44;1.60;;;1.30;;
19257;SDS011;9763;48.780;9.212;2022-09-03T08:27:10;1.83;;;1.23;;
19257;SDS011;9763;48.780;9.212;2022-09-03T08:30:34;2.03;;;1.27;;
19257;SDS011;9763;48.780;9.212;2022-09-03T08:33:59;1.73;;;1.33;;
19257;SDS011;9763;48.780;9.212;2022-09-03T08:37:29;1.70;;;1.20;;
19257;SDS011;9763;48.780;9.212;2022-09-03T08:40:53;3.53;;;1.63;;
19257;SDS011;9763;48.780;9.212;2022-09-03T08:44:32;1.80;;;1.40;;
19257;SDS011;9763;48.780;9.212;2022-09-03T08:48:09;2.40;;;1.13;;
19257;SDS011;9763;48.780;9.212;2022-09-03T08:51:38;2.57;;;1.33;;
19257;SDS011;9763;48.780;9.212;2022-09-03T08:55:15;1.60;;;1.23;;
19257;SDS011;9763;48.780;9.212;2022-09-03T08:58:45;1.70;;;1.20;;
19257;SDS011;9763;48.780;9.212;2022-09-03T09:02:13;1.40;;;1.10;;
19257;SDS011;9763;48.780;9.212;2022-09-03T09:05:57;1.80;;;1.10;;
19257;SDS011;9763;48.780;9.212;2022-09-03T09:09:34;1.47;;;1.20;;
19257;SDS011;9763;48.780;9.212;2022-09-03T09:13:13;2.23;;;1.47;;
19257;SDS011;9763;48.780;9.212;2022-09-03T09:16:53;1.40;;;1.13;;
19257;SDS011;9763;48.780;9.212;2022-09-03T09:20:29;2.27;;;1.60;;
19257;SDS011;9763;48.780;9.212;2022-09-03T09:24:05;2.10;;;1.33;;
19257;SDS011;9763;48.780;9.212;2022-09-03T09:27:41;1.97;;;1.20;;
19257;SDS011;9763;48.780;9.212;2022-09-03T09:31:14;1.67;;;1.20;;
19257;SDS011;9763;48.780;9.212;2022-09-03T09:34:39;1.70;;;1.30;;
19257;SDS011;9763;48.780;9.212;2022-09-03T09:38:03;1.60;;;1.10;;
19257;SDS011;9763;48.780;9.212;2022-09-03T09:41:27;1.60;;;1.30;;
19257;SDS011;9763;48.780;9.212;2022-09-03T09:44:50;1.60;;;1.37;;
19257;SDS011;9763;48.780;9.212;2022-09-03T09:48:17;1.40;;;1.00;;
19257;SDS011;9763;48.780;9.212;2022-09-03T09:51:47;1.40;;;1.10;;
19257;SDS011;9763;48.780;9.212;2022-09-03T09:55:22;1.50;;;1.07;;
19257;SDS011;9763;48.780;9.212;2022-09-03T09:58:47;1.67;;;1.20;;
19257;SDS011;9763;48.780;9.212;2022-09-03T10:02:11;1.80;;;1.13;;
19257;SDS011;9763;48.780;9.212;2022-09-03T10:05:56;1.47;;;1.10;;
19257;SDS011;9763;48.780;9.212;2022-09-03T10:09:56;2.27;;;1.30;;
19257;SDS011;9763;48.780;9.212;2022-09-03T10:13:23;1.50;;;1.10;;
19257;SDS011;9763;48.780;9.212;2022-09-03T10:17:07;1.67;;;1.40;;
19257;SDS011;9763;48.780;9.212;2022-09-03T10:20:41;1.53;;;1.27;;
19257;SDS011;9763;48.780;9.212;2022-09-03T10:24:18;1.90;;;1.30;;
19257;SDS011;9763;48.780;9.212;2022-09-03T10:28:03;8.40;;;1.50;;
19257;SDS011;9763;48.780;9.212;2022-09-03T10:31:35;1.50;;;1.13;;
19257;SDS011;9763;48.780;9.212;2022-09-03T10:35:28;1.50;;;1.33;;
19257;SDS011;9763;48.780;9.212;2022-09-03T10:38:58;2.13;;;1.33;;
19257;SDS011;9763;48.780;9.212;2022-09-03T10:42:40;1.50;;;1.23;;
19257;SDS011;9763;48.780;9.212;2022-09-03T10:46:10;1.50;;;1.10;;
19257;SDS011;9763;48.780;9.212;2022-09-03T10:49:47;2.80;;;1.27;;
19257;SDS011;9763;48.780;9.212;2022-09-03T10:53:20;1.90;;;1.20;;
19257;SDS011;9763;48.780;9.212;2022-09-03T10:57:16;1.70;;;1.27;;
19257;SDS011;9763;48.780;9.212;2022-09-03T11:00:59;1.70;;;1.13;;
19257;SDS011;9763;48.780;9.212;2022-09-03T11:04:34;2.07;;;1.30;;
19257;SDS011;9763;48.780;9.212;2022-09-03T11:08:13;1.70;;;1.37;;
19257;SDS011;9763;48.780;9.212;2022-09-03T11:11:44;2.90;;;1.50;;
19257;SDS011;9763;48.780;9.212;2022-09-03T11:15:19;1.70;;;1.20;;
19257;SDS011;9763;48.780;9.212;2022-09-03T11:18:52;1.73;;;1.50;;
19257;SDS011;9763;48.780;9.212;2022-09-03T11:22:19;2.13;;;1.40;;
19257;SDS011;9763;48.780;9.212;2022-09-03T11:25:46;2.17;;;1.37;;
19257;SDS011;9763;48.780;9.212;2022-09-03T11:29:15;1.60;;;1.33;;
19257;SDS011;9763;48.780;9.212;2022-09-03T11:32:52;1.67;;;1.30;;
19257;SDS011;9763;48.780;9.212;2022-09-03T11:36:24;1.60;;;1.30;;
19257;SDS011;9763;48.780;9.212;2022-09-03T11:39:53;1.70;;;1.30;;
19257;SDS011;9763;48.780;9.212;2022-09-03T11:43:24;1.60;;;1.30;;
19257;SDS011;9763;48.780;9.212;2022-09-03T11:46:52;2.40;;;1.30;;
19257;SDS011;9763;48.780;9.212;2022-09-03T11:50:20;1.70;;;1.57;;
19257;SDS011;9763;48.780;9.212;2022-09-03T11:53:54;2.10;;;1.90;;
19257;SDS011;9763;48.780;9.212;2022-09-03T11:57:22;1.70;;;1.57;;
19257;SDS011;9763;48.780;9.212;2022-09-03T12:00:50;8.50;;;1.80;;
19257;SDS011;9763;48.780;9.212;2022-09-03T12:04:15;2.00;;;1.70;;
19257;SDS011;9763;48.780;9.212;2022-09-03T12:07:55;1.90;;;1.50;;
19257;SDS011;9763;48.780;9.212;2022-09-03T12:12:01;1.50;;;1.10;;
19257;SDS011;9763;48.780;9.212;2022-09-03T12:15:48;2.90;;;1.17;;
19257;SDS011;9763;48.780;9.212;2022-09-03T12:19:57;2.43;;;1.53;;
19257;SDS011;9763;48.780;9.212;2022-09-03T12:23:25;1.70;;;1.50;;
19257;SDS011;9763;48.780;9.212;2022-09-03T12:26:51;1.60;;;1.30;;
19257;SDS011;9763;48.780;9.212;2022-09-03T12:30:20;1.77;;;1.33;;
19257;SDS011;9763;48.780;9.212;2022-09-03T12:33:47;2.10;;;1.60;;
19257;SDS011;9763;48.780;9.212;2022-09-03T12:37:18;1.80;;;1.50;;
19257;SDS011;9763;48.780;9.212;2022-09-03T12:41:04;2.10;;;1.50;;
19257;SDS011;9763;48.780;9.212;2022-09-03T12:44:47;1.50;;;1.20;;
19257;SDS011;9763;48.780;9.212;2022-09-03T12:48:13;2.30;;;1.20;;
19257;SDS011;9763;48.780;9.212;2022-09-03T12:51:38;1.77;;;1.27;;
19257;SDS011;9763;48.780;9.212;2022-09-03T12:55:25;1.60;;;1.17;;
19257;SDS011;9763;48.780;9.212;2022-09-03T12:58:58;2.30;;;1.23;;
19257;SDS011;9763;48.780;9.212;2022-09-03T13:02:29;2.80;;;1.10;;
19257;SDS011;9763;48.780;9.212;2022-09-03T13:06:05;2.50;;;1.30;;
19257;SDS011;9763;48.780;9.212;2022-09-03T13:09:33;2.00;;;1.07;;
19257;SDS011;9763;48.780;9.212;2022-09-03T13:13:01;1.30;;;0.83;;
19257;SDS011;9763;48.780;9.212;2022-09-03T13:16:51;2.37;;;0.93;;
19257;SDS011;9763;48.780;9.212;2022-09-03T13:20:40;1.40;;;1.10;;
19257;SDS011;9763;48.780;9.212;2022-09-03T13:24:37;2.13;;;1.03;;
19257;SDS011;9763;48.780;9.212;2022-09-03T13:28:17;3.00;;;0.90;;
19257;SDS011;9763;48.780;9.212;2022-09-03T13:32:01;1.97;;;0.90;;
19257;SDS011;9763;48.780;9.212;2022-09-03T13:35:39;1.50;;;1.20;;
19257;SDS011;9763;48.780;9.212;2022-09-03T13:39:15;1.20;;;0.90;;
19257;SDS011;9763;48.780;9.212;2022-09-03T13:42:50;2.03;;;1.00;;
19257;SDS011;9763;48.780;9.212;2022-09-03T13:46:19;1.87;;;1.13;;
19257;SDS011;9763;48.780;9.212;2022-09-03T13:49:52;1.67;;;1.10;;
19257;SDS011;9763;48.780;9.212;2022-09-03T13:53:45;2.27;;;1.30;;
19257;SDS011;9763;48.780;9.212;2022-09-03T13:57:27;1.40;;;1.00;;
19257;SDS011;9763;48.780;9.212;2022-09-03T14:01:05;1.83;;;1.17;;
19257;SDS011;9763;48.780;9.212;2022-09-03T14:04:43;2.73;;;1.00;;
19257;SDS011;9763;48.780;9.212;2022-09-03T14:08:27;1.67;;;0.97;;
19257;SDS011;9763;48.780;9.212;2022-09-03T14:12:18;1.60;;;0.90;;
19257;SDS011;9763;48.780;9.212;2022-09-03T14:15:59;1.60;;;1.00;;
19257;SDS011;9763;48.780;9.212;2022-09-03T14:19:35;2.60;;;1.37;;
19257;SDS011;9763;48.780;9.212;2022-09-03T14:23:09;1.57;;;1.00;;
19257;SDS011;9763;48.780;9.212;2022-09-03T14:26:53;2.23;;;0.90;;
19257;SDS011;9763;48.780;9.212;2022-09-03T14:30:25;1.40;;;0.90;;
19257;SDS011;9763;48.780;9.212;2022-09-03T14:34:05;1.60;;;1.00;;
19257;SDS011;9763;48.780;9.212;2022-09-03T14:37:49;1.40;;;1.10;;
19257;SDS011;9763;48.780;9.212;2022-09-03T14:45:50;1.30;;;0.90;;
19257;SDS011;9763;48.780;9.212;2022-09-03T14:57:53;1.30;;;0.90;;
19257;SDS011;9763;48.780;9.212;2022-09-03T15:01:39;1.50;;;1.00;;
19257;SDS011;9763;48.780;9.212;2022-09-03T15:05:09;1.83;;;0.87;;
19257;SDS011;9763;48.780;9.212;2022-09-03T15:08:46;1.30;;;0.80;;
19257;SDS011;9763;48.780;9.212;2022-09-03T15:12:34;2.10;;;0.87;;
19257;SDS011;9763;48.780;9.212;2022-09-03T15:16:07;1.30;;;0.90;;
19257;SDS011;9763;48.780;9.212;2022-09-03T15:20:06;1.40;;;0.90;;
19257;SDS011;9763;48.780;9.212;2022-09-03T15:23:47;1.30;;;0.90;;
19257;SDS011;9763;48.780;9.212;2022-09-03T15:27:33;1.67;;;1.00;;
19257;SDS011;9763;48.780;9.212;2022-09-03T15:31:15;1.30;;;0.80;;
19257;SDS011;9763;48.780;9.212;2022-09-03T15:34:52;1.30;;;1.00;;
19257;SDS011;9763;48.780;9.212;2022-09-03T15:38:32;1.30;;;0.90;;
19257;SDS011;9763;48.780;9.212;2022-09-03T15:42:08;1.40;;;0.90;;
19257;SDS011;9763;48.780;9.212;2022-09-03T15:45:40;1.60;;;1.10;;
19257;SDS011;9763;48.780;9.212;2022-09-03T15:49:21;1.40;;;1.00;;
19257;SDS011;9763;48.780;9.212;2022-09-03T15:53:00;1.73;;;1.07;;
19257;SDS011;9763;48.780;9.212;2022-09-03T15:56:37;1.30;;;1.00;;
19257;SDS011;9763;48.780;9.212;2022-09-03T16:00:15;1.80;;;0.97;;
19257;SDS011;9763;48.780;9.212;2022-09-03T16:03:43;1.70;;;1.23;;
19257;SDS011;9763;48.780;9.212;2022-09-03T16:07:23;1.70;;;1.20;;
19257;SDS011;9763;48.780;9.212;2022-09-03T16:10:59;1.60;;;1.17;;
19257;SDS011;9763;48.780;9.212;2022-09-03T16:14:33;1.90;;;1.30;;
19257;SDS011;9763;48.780;9.212;2022-09-03T16:18:03;2.10;;;1.20;;
19257;SDS011;9763;48.780;9.212;2022-09-03T16:21:44;1.63;;;1.27;;
19257;SDS011;9763;48.780;9.212;2022-09-03T16:25:17;1.50;;;1.00;;
19257;SDS011;9763;48.780;9.212;2022-09-03T16:28:46;1.97;;;1.07;;
19257;SDS011;9763;48.780;9.212;2022-09-03T16:32:22;1.50;;;1.10;;
19257;SDS011;9763;48.780;9.212;2022-09-03T16:36:22;1.40;;;1.00;;
19257;SDS011;9763;48.780;9.212;2022-09-03T16:40:01;1.50;;;1.03;;
19257;SDS011;9763;48.780;9.212;2022-09-03T16:43:38;1.40;;;1.10;;
19257;SDS011;9763;48.780;9.212;2022-09-03T16:47:12;1.60;;;1.10;;
19257;SDS011;9763;48.780;9.212;2022-09-03T16:50:55;1.50;;;1.10;;
19257;SDS011;9763;48.780;9.212;2022-09-03T16:54:36;1.30;;;0.97;;
19257;SDS011;9763;48.780;9.212;2022-09-03T16:58:20;1.70;;;1.20;;
19257;SDS011;9763;48.780;9.212;2022-09-03T17:01:59;1.50;;;1.00;;
19257;SDS011;9763;48.780;9.212;2022-09-03T17:06:08;1.30;;;0.90;;
19257;SDS011;9763;48.780;9.212;2022-09-03T17:09:55;1.40;;;0.97;;
19257;SDS011;9763;48.780;9.212;2022-09-03T17:17:40;1.50;;;1.00;;
19257;SDS011;9763;48.780;9.212;2022-09-03T17:21:37;1.40;;;0.97;;
19257;SDS011;9763;48.780;9.212;2022-09-03T17:25:16;1.40;;;1.00;;
19257;SDS011;9763;48.780;9.212;2022-09-03T17:28:55;1.77;;;1.20;;
19257;SDS011;9763;48.780;9.212;2022-09-03T17:32:36;1.30;;;0.90;;
19257;SDS011;9763;48.780;9.212;2022-09-03T17:36:30;1.30;;;1.00;;
19257;SDS011;9763;48.780;9.212;2022-09-03T17:40:11;1.30;;;0.80;;
19257;SDS011;9763;48.780;9.212;2022-09-03T17:43:49;2.60;;;0.97;;
19257;SDS011;9763;48.780;9.212;2022-09-03T17:47:31;1.40;;;1.03;;
19257;SDS011;9763;48.780;9.212;2022-09-03T17:51:26;1.50;;;1.03;;
19257;SDS011;9763;48.780;9.212;2022-09-03T17:54:59;1.80;;;1.20;;
19257;SDS011;9763;48.780;9.212;2022-09-03T17:58:35;2.23;;;1.03;;
19257;SDS011;9763;48.780;9.212;2022-09-03T18:02:07;1.70;;;1.13;;
19257;SDS011;9763;48.780;9.212;2022-09-03T18:05:51;1.70;;;1.03;;
19257;SDS011;9763;48.780;9.212;2022-09-03T18:09:22;2.20;;;1.30;;
19257;SDS011;9763;48.780;9.212;2022-09-03T18:13:03;1.80;;;1.03;;
19257;SDS011;9763;48.780;9.212;2022-09-03T18:16:46;1.50;;;1.20;;
19257;SDS011;9763;48.780;9.212;2022-09-03T18:20:16;2.27;;;1.10;;
19257;SDS011;9763;48.780;9.212;2022-09-03T18:24:03;2.13;;;1.30;;
19257;SDS011;9763;48.780;9.212;2022-09-03T18:28:04;1.60;;;1.23;;
19257;SDS011;9763;48.780;9.212;2022-09-03T18:31:51;2.03;;;1.83;;
19257;SDS011;9763;48.780;9.212;2022-09-03T18:35:32;1.90;;;1.60;;
19257;SDS011;9763;48.780;9.212;2022-09-03T18:39:14;1.50;;;1.20;;
19257;SDS011;9763;48.780;9.212;2022-09-03T18:43:11;1.70;;;1.17;;
19257;SDS011;9763;48.780;9.212;2022-09-03T18:47:04;2.80;;;1.00;;
19257;SDS011;9763;48.780;9.212;2022-09-03T18:51:32;1.40;;;1.00;;
19257;SDS011;9763;48.780;9.212;2022-09-03T18:55:27;1.40;;;1.10;;
19257;SDS011;9763;48.780;9.212;2022-09-03T18:59:31;2.00;;;1.80;;
19257;SDS011;9763;48.780;9.212;2022-09-03T19:03:43;2.70;;;2.10;;
19257;SDS011;9763;48.780;9.212;2022-09-03T19:07:45;1.90;;;1.70;;
19257;SDS011;9763;48.780;9.212;2022-09-03T19:11:36;2.20;;;1.77;;
19257;SDS011;9763;48.780;9.212;2022-09-03T19:15:33;3.20;;;2.90;;
19257;SDS011;9763;48.780;9.212;2022-09-03T19:19:32;2.47;;;2.27;;
19257;SDS011;9763;48.780;9.212;2022-09-03T19:23:35;2.00;;;1.77;;
19257;SDS011;9763;48.780;9.212;2022-09-03T19:27:18;1.67;;;1.43;;
19257;SDS011;9763;48.780;9.212;2022-09-03T19:31:40;1.50;;;1.30;;
19257;SDS011;9763;48.780;9.212;2022-09-03T19:35:26;1.50;;;1.30;;
19257;SDS011;9763;48.780;9.212;2022-09-03T19:39:25;1.40;;;1.13;;
19257;SDS011;9763;48.780;9.212;2022-09-03T19:43:32;1.70;;;1.40;;
19257;SDS011;9763;48.780;9.212;2022-09-03T19:47:34;1.90;;;1.20;;
19257;SDS011;9763;48.780;9.212;2022-09-03T19:51:31;1.80;;;1.53;;
19257;SDS011;9763;48.780;9.212;2022-09-03T19:55:23;1.60;;;1.20;;
19257;SDS011;9763;48.780;9.212;2022-09-03T19:59:08;1.60;;;1.37;;
19257;SDS011;9763;48.780;9.212;2022-09-03T20:02:58;1.50;;;1.20;;
19257;SDS011;9763;48.780;9.212;2022-09-03T20:06:41;1.80;;;1.70;;
19257;SDS011;9763;48.780;9.212;2022-09-03T20:10:24;3.23;;;2.93;;
19257;SDS011;9763;48.780;9.212;2022-09-03T20:13:48;4.13;;;3.73;;
19257;SDS011;9763;48.780;9.212;2022-09-03T20:17:31;3.67;;;3.27;;
19257;SDS011;9763;48.780;9.212;2022-09-03T20:21:09;3.23;;;2.37;;
19257;SDS011;9763;48.780;9.212;2022-09-03T20:24:43;1.90;;;1.53;;
19257;SDS011;9763;48.780;9.212;2022-09-03T20:28:32;2.10;;;1.57;;
19257;SDS011;9763;48.780;9.212;2022-09-03T20:32:19;1.80;;;1.50;;
19257;SDS011;9763;48.780;9.212;2022-09-03T20:36:18;1.87;;;1.60;;
19257;SDS011;9763;48.780;9.212;2022-09-03T20:39:57;1.57;;;1.40;;
19257;SDS011;9763;48.780;9.212;2022-09-03T20:43:42;1.50;;;1.40;;
19257;SDS011;9763;48.780;9.212;2022-09-03T20:47:39;1.70;;;1.57;;
19257;SDS011;9763;48.780;9.212;2022-09-03T20:51:31;1.50;;;1.40;;
19257;SDS011;9763;48.780;9.212;2022-09-03T20:55:04;1.80;;;1.60;;
19257;SDS011;9763;48.780;9.212;2022-09-03T20:58:36;1.60;;;1.43;;
19257;SDS011;9763;48.780;9.212;2022-09-03T21:02:15;1.40;;;1.20;;
19257;SDS011;9763;48.780;9.212;2022-09-03T21:06:01;2.00;;;1.50;;
19257;SDS011;9763;48.780;9.212;2022-09-03T21:09:44;1.60;;;1.40;;
19257;SDS011;9763;48.780;9.212;2022-09-03T21:13:17;2.43;;;1.80;;
19257;SDS011;9763;48.780;9.212;2022-09-03T21:17:03;1.80;;;1.60;;
19257;SDS011;9763;48.780;9.212;2022-09-03T21:20:46;2.07;;;1.33;;
19257;SDS011;9763;48.780;9.212;2022-09-03T21:24:22;3.93;;;1.77;;
19257;SDS011;9763;48.780;9.212;2022-09-03T21:27:55;2.33;;;1.37;;
19257;SDS011;9763;48.780;9.212;2022-09-03T21:31:28;1.40;;;1.07;;
19257;SDS011;9763;48.780;9.212;2022-09-03T21:35:00;2.47;;;1.20;;
19257;SDS011;9763;48.780;9.212;2022-09-03T21:38:33;2.13;;;1.10;;
19257;SDS011;9763;48.780;9.212;2022-09-03T21:42:02;1.50;;;1.20;;
19257;SDS011;9763;48.780;9.212;2022-09-03T21:45:35;1.40;;;1.03;;
19257;SDS011;9763;48.780;9.212;2022-09-03T21:49:09;1.60;;;1.00;;
19257;SDS011;9763;48.780;9.212;2022-09-03T21:52:41;1.40;;;1.07;;
19257;SDS011;9763;48.780;9.212;2022-09-03T21:56:35;2.70;;;1.27;;
19257;SDS011;9763;48.780;9.212;2022-09-03T22:00:28;1.57;;;1.10;;
19257;SDS011;9763;48.780;9.212;2022-09-03T22:03:54;1.93;;;1.33;;
19257;SDS011;9763;48.780;9.212;2022-09-03T22:07:20;1.87;;;1.10;;
19257;SDS011;9763;48.780;9.212;2022-09-03T22:11:01;1.40;;;0.90;;
19257;SDS011;9763;48.780;9.212;2022-09-03T22:14:35;1.43;;;1.07;;